createdAt,value
2023-08-27T04:27:32.484Z,18.52
2023-08-27T04:31:35.638Z,18.54
2023-08-27T04:35:38.184Z,18.51
2023-08-27T04:39:41.332Z,18.48
2023-08-27T04:43:45.188Z,18.47
2023-08-27T04:47:48.610Z,18.44
2023-08-27T04:51:51.279Z,18.37
2023-08-27T04:55:54.335Z,18.33
2023-08-27T04:59:58.873Z,18.40
2023-08-27T05:04:03.010Z,18.96
2023-08-27T05:08:06.205Z,20.20
2023-08-27T05:12:09.133Z,22.01
2023-08-27T05:16:13.454Z,24.15
2023-08-27T05:20:16.952Z,25.74
2023-08-27T05:24:19.582Z,27.00
2023-08-27T05:28:22.592Z,27.45
2023-08-27T05:32:26.676Z,28.74
2023-08-27T05:36:29.705Z,29.18
2023-08-27T05:40:32.707Z,28.78
2023-08-27T05:44:35.672Z,28.23
2023-08-27T05:48:39.961Z,26.44
2023-08-27T05:52:43.016Z,25.84
2023-08-27T05:56:45.477Z,24.59
2023-08-27T06:00:48.413Z,24.09
2023-08-27T06:04:52.756Z,25.21
2023-08-27T06:08:55.687Z,27.28
2023-08-27T06:12:59.288Z,28.86
2023-08-27T06:17:02.678Z,29.63
2023-08-27T06:21:07.358Z,31.14
2023-08-27T06:25:10.462Z,32.14
2023-08-27T06:29:13.056Z,32.93
2023-08-27T06:33:16.007Z,33.71
2023-08-27T06:37:20.091Z,33.01
2023-08-27T06:41:23.438Z,34.41
2023-08-27T06:45:30.232Z,33.53
2023-08-27T06:49:33.256Z,33.94
2023-08-27T06:53:37.657Z,34.92
2023-08-27T06:57:40.836Z,34.89
2023-08-27T07:01:43.856Z,35.67
2023-08-27T07:05:46.540Z,36.74
2023-08-27T07:09:50.865Z,36.77
2023-08-27T07:13:53.623Z,37.18
2023-08-27T07:17:56.535Z,37.03
2023-08-27T07:21:59.668Z,37.09
2023-08-27T07:26:05.368Z,37.46
2023-08-27T07:30:10.526Z,38.00
2023-08-27T07:34:13.680Z,38.43
2023-08-27T07:38:17.300Z,38.55
2023-08-27T07:42:23.015Z,38.17
2023-08-27T07:46:26.059Z,38.55
2023-08-27T07:50:29.489Z,38.41
2023-08-27T07:54:32.696Z,38.29
2023-08-27T07:58:37.269Z,37.28
2023-08-27T08:02:42.781Z,38.13
2023-08-27T08:06:45.749Z,38.12
2023-08-27T08:10:48.716Z,38.71
2023-08-27T08:14:54.116Z,39.30
2023-08-27T08:18:57.091Z,38.83
2023-08-27T08:23:00.262Z,37.15
2023-08-27T08:27:04.178Z,36.69
2023-08-27T08:31:09.076Z,38.48
2023-08-27T08:35:11.993Z,35.83
2023-08-27T08:39:14.963Z,36.16
2023-08-27T08:43:24.686Z,37.17
2023-08-27T08:47:30.801Z,37.30
2023-08-27T08:51:35.732Z,35.64
2023-08-27T08:55:39.462Z,35.43
2023-08-27T08:59:42.928Z,33.92
2023-08-27T09:03:48.469Z,33.24
2023-08-27T09:07:52.008Z,33.72
2023-08-27T09:11:57.509Z,34.41
2023-08-27T09:16:01.081Z,33.22
2023-08-27T09:20:07.088Z,31.73
2023-08-27T09:24:10.287Z,30.56
2023-08-27T09:28:15.516Z,30.43
2023-08-27T09:32:23.218Z,29.86
2023-08-27T09:36:28.721Z,31.48
2023-08-27T09:40:32.027Z,30.32
2023-08-27T09:44:35.089Z,30.21
2023-08-27T09:48:38.750Z,30.49
2023-08-27T09:52:44.045Z,31.31
2023-08-27T09:56:48.499Z,32.77
2023-08-27T10:00:51.123Z,30.98
2023-08-27T10:04:57.712Z,30.47
2023-08-27T10:09:03.125Z,31.05
2023-08-27T10:13:07.717Z,30.37
2023-08-27T10:17:12.978Z,29.48
2023-08-27T10:21:16.901Z,29.88
2023-08-27T10:25:22.558Z,29.67
2023-08-27T10:29:27.079Z,30.51
2023-08-27T10:33:29.974Z,31.91
2023-08-27T10:37:34.731Z,32.01
2023-08-27T10:41:39.528Z,31.22
2023-08-27T10:45:42.528Z,30.20
2023-08-27T10:49:48.718Z,31.16
2023-08-27T10:53:59.459Z,30.45
2023-08-27T10:58:15.878Z,29.51
2023-08-27T11:02:19.092Z,29.04
2023-08-27T11:06:33.556Z,29.08
2023-08-27T11:10:36.271Z,29.01
2023-08-27T11:14:42.743Z,28.85
2023-08-27T11:18:50.657Z,28.95
2023-08-27T11:22:58.089Z,28.94
2023-08-27T11:27:03.666Z,29.06
2023-08-27T11:31:08.768Z,28.89
2023-08-27T11:35:15.819Z,28.72
2023-08-27T11:39:19.481Z,28.72
2023-08-27T11:43:26.366Z,28.64
2023-08-27T11:47:30.519Z,28.62
2023-08-27T11:51:33.847Z,28.60
2023-08-27T11:55:36.910Z,28.88
2023-08-27T11:59:41.123Z,28.96
2023-08-27T12:03:45.913Z,29.56
2023-08-27T12:07:49.231Z,29.11
2023-08-27T12:11:52.801Z,28.87
2023-08-27T12:15:56.352Z,28.98
2023-08-27T12:20:02.447Z,28.94
2023-08-27T12:24:06.462Z,28.98
2023-08-27T12:28:09.165Z,29.02
2023-08-27T12:32:14.149Z,28.83
2023-08-27T12:36:18.346Z,28.89
2023-08-27T12:40:21.706Z,28.82
2023-08-27T12:44:24.701Z,28.55
2023-08-27T12:48:27.495Z,28.32
2023-08-27T12:52:31.870Z,28.32
2023-08-27T12:56:35.334Z,28.36
2023-08-27T13:00:38.070Z,28.31
2023-08-27T13:04:40.999Z,28.02
2023-08-27T13:08:45.713Z,27.90
2023-08-27T13:12:48.603Z,28.00
2023-08-27T13:16:51.791Z,27.96
2023-08-27T13:20:55.145Z,28.01
2023-08-27T13:24:59.366Z,28.02
2023-08-27T13:29:02.866Z,27.73
2023-08-27T13:33:06.085Z,27.72
2023-08-27T13:37:09.026Z,27.54
2023-08-27T13:41:13.788Z,27.54
2023-08-27T13:45:16.921Z,27.58
2023-08-27T13:49:20.110Z,27.76
2023-08-27T13:53:23.582Z,27.77
2023-08-27T13:57:28.096Z,27.77
2023-08-27T14:01:32.272Z,27.67
2023-08-27T14:05:36.196Z,27.61
2023-08-27T14:09:40.785Z,27.56
2023-08-27T14:13:46.627Z,27.84
2023-08-27T14:17:49.744Z,28.00
2023-08-27T14:21:52.804Z,28.12
2023-08-27T14:25:55.955Z,28.19
2023-08-27T14:30:00.785Z,28.17
2023-08-27T14:34:05.946Z,28.08
2023-08-27T14:38:08.882Z,27.94
2023-08-27T14:42:11.656Z,27.97
2023-08-27T14:46:15.800Z,27.66
2023-08-27T14:50:20.010Z,27.51
2023-08-27T14:54:23.116Z,27.33
2023-08-27T14:58:25.699Z,27.25
2023-08-27T15:02:30.257Z,27.12
2023-08-27T15:06:33.385Z,26.93
2023-08-27T15:10:36.252Z,26.73
2023-08-27T15:14:39.424Z,26.63
2023-08-27T15:18:44.110Z,26.49
2023-08-27T15:22:47.192Z,26.31
2023-08-27T15:26:50.356Z,26.33
2023-08-27T15:30:55.766Z,26.42
2023-08-27T15:35:02.380Z,26.45
2023-08-27T15:39:05.743Z,26.56
2023-08-27T15:43:24.937Z,26.52
2023-08-27T15:47:31.379Z,26.47
2023-08-27T15:51:35.973Z,26.40
2023-08-27T15:55:39.250Z,26.28
2023-08-27T15:59:41.977Z,26.12
2023-08-27T16:03:46.396Z,25.91
2023-08-27T16:07:50.732Z,25.76
2023-08-27T16:11:54.016Z,25.59
2023-08-27T16:15:58.902Z,25.52
2023-08-27T16:20:01.670Z,25.44
2023-08-27T16:24:07.071Z,25.31
2023-08-27T16:28:11.078Z,25.21
2023-08-27T16:32:13.984Z,25.12
2023-08-27T16:36:17.429Z,25.10
2023-08-27T16:40:23.109Z,24.94
2023-08-27T16:44:27.182Z,24.75
2023-08-27T16:48:30.877Z,24.65
2023-08-27T16:52:33.882Z,24.54
2023-08-27T16:56:38.439Z,24.37
2023-08-27T17:00:41.731Z,24.21
2023-08-27T17:04:46.469Z,24.06
2023-08-27T17:08:51.661Z,23.89
2023-08-27T17:12:56.446Z,23.69
2023-08-27T17:17:01.800Z,23.54
2023-08-27T17:21:05.486Z,23.36
2023-08-27T17:25:09.269Z,23.19
2023-08-27T17:29:13.637Z,22.97
2023-08-27T17:33:16.820Z,22.78
2023-08-27T17:37:19.631Z,22.62
2023-08-27T17:41:27.359Z,22.47
2023-08-27T17:45:32.049Z,22.34
2023-08-27T17:49:36.177Z,22.20
2023-08-27T17:53:39.900Z,22.07
2023-08-27T17:57:43.121Z,21.99
2023-08-27T18:01:47.302Z,21.80
2023-08-27T18:05:50.638Z,21.70
2023-08-27T18:09:53.280Z,21.61
2023-08-27T18:13:56.764Z,21.53
2023-08-27T18:18:01.594Z,21.41
2023-08-27T18:22:05.350Z,21.26
2023-08-27T18:26:09.120Z,21.19
2023-08-27T18:30:13.427Z,21.08
2023-08-27T18:34:18.910Z,21.05
2023-08-27T18:38:22.492Z,20.98
2023-08-27T18:42:33.444Z,20.91
2023-08-27T18:46:40.337Z,20.90
2023-08-27T18:50:45.391Z,20.81
2023-08-27T18:54:48.531Z,20.73
2023-08-27T18:58:51.199Z,20.67
2023-08-27T19:02:54.706Z,20.61
2023-08-27T19:06:58.829Z,20.52
2023-08-27T19:11:02.012Z,20.50
2023-08-27T19:15:06.276Z,20.43
2023-08-27T19:19:11.784Z,20.30
2023-08-27T19:23:16.389Z,20.27
2023-08-27T19:27:20.390Z,20.23
2023-08-27T19:31:30.133Z,20.15
2023-08-27T19:35:40.354Z,20.13
2023-08-27T19:39:45.216Z,20.10
2023-08-27T19:43:49.198Z,20.09
2023-08-27T19:47:51.554Z,20.08
2023-08-27T19:51:54.684Z,20.01
2023-08-27T19:55:59.257Z,19.95
2023-08-27T20:00:02.071Z,19.90
2023-08-27T20:04:06.014Z,19.83
2023-08-27T20:08:08.768Z,19.82
2023-08-27T20:12:13.350Z,19.87
2023-08-27T20:16:16.576Z,19.90
2023-08-27T20:20:19.795Z,19.90
2023-08-27T20:24:22.937Z,19.88
2023-08-27T20:28:27.574Z,19.86
2023-08-27T20:32:30.980Z,19.85
2023-08-27T20:36:33.940Z,19.85
2023-08-27T20:40:38.829Z,19.81
2023-08-27T20:44:43.594Z,19.77
2023-08-27T20:48:46.791Z,19.71
2023-08-27T20:52:49.780Z,19.71
2023-08-27T20:56:52.007Z,19.64
2023-08-27T21:00:56.537Z,19.57
2023-08-27T21:05:00.156Z,19.58
2023-08-27T21:09:04.089Z,19.60
2023-08-27T21:13:08.545Z,19.63
2023-08-27T21:17:13.992Z,19.89
2023-08-27T21:21:17.487Z,20.06
2023-08-27T21:25:20.312Z,20.09
2023-08-27T21:29:23.484Z,20.12
2023-08-27T21:33:28.218Z,20.09
2023-08-27T21:37:31.047Z,20.16
2023-08-27T21:41:34.291Z,20.27
2023-08-27T21:45:37.957Z,20.48
2023-08-27T21:49:42.508Z,20.67
2023-08-27T21:53:45.776Z,20.65
2023-08-27T21:57:48.834Z,20.66
2023-08-27T22:01:52.422Z,20.77
2023-08-27T22:06:00.341Z,20.88
2023-08-27T22:10:03.829Z,20.88
2023-08-27T22:14:07.759Z,20.89
2023-08-27T22:18:10.917Z,20.91
2023-08-27T22:22:15.756Z,20.82
2023-08-27T22:26:18.946Z,20.70
2023-08-27T22:30:22.342Z,20.66
2023-08-27T22:34:26.099Z,20.71
2023-08-27T22:38:30.733Z,20.76
2023-08-27T22:42:36.223Z,20.83
